createdAt,value
2023-01-26T00:02:21.621Z,35.15
2023-01-26T00:04:49.751Z,37.53
2023-01-26T00:07:17.786Z,39.85
2023-01-26T00:09:45.877Z,42.05
2023-01-26T00:12:15.351Z,43.00
2023-01-26T00:14:52.331Z,39.60
2023-01-26T00:17:28.002Z,37.03
2023-01-26T00:19:57.600Z,50.23
2023-01-26T00:22:26.976Z,46.28
2023-01-26T00:24:55.055Z,47.80
2023-01-26T00:27:24.528Z,47.30
2023-01-26T00:29:52.617Z,43.20
2023-01-26T00:32:20.680Z,39.33
2023-01-26T00:34:48.786Z,39.40
2023-01-26T00:37:16.825Z,42.50
2023-01-26T00:39:44.899Z,48.38
2023-01-26T00:42:13.956Z,41.65
2023-01-26T00:44:44.348Z,39.53
2023-01-26T00:47:13.830Z,43.33
2023-01-26T00:49:41.865Z,43.45
2023-01-26T00:52:09.939Z,39.15
2023-01-26T00:54:38.034Z,39.90
2023-01-26T00:57:06.267Z,47.35
2023-01-26T00:59:34.412Z,42.25
2023-01-26T01:02:04.208Z,44.28
2023-01-26T01:04:32.691Z,45.90
2023-01-26T01:07:00.729Z,38.85
2023-01-26T01:09:28.879Z,41.10
2023-01-26T01:11:56.906Z,41.70
2023-01-26T01:14:25.016Z,45.25
2023-01-26T01:16:53.449Z,43.22
2023-01-26T01:19:22.903Z,43.13
2023-01-26T01:21:51.003Z,37.28
2023-01-26T01:24:19.144Z,39.25
2023-01-26T01:26:47.228Z,43.63
2023-01-26T01:29:15.830Z,45.65
2023-01-26T01:31:44.298Z,42.92
2023-01-26T01:34:12.432Z,39.90
2023-01-26T01:36:41.836Z,44.53
2023-01-26T01:39:10.011Z,46.38
2023-01-26T01:41:38.060Z,47.80
2023-01-26T01:44:14.273Z,42.42
2023-01-26T01:46:46.724Z,44.17
2023-01-26T01:49:20.400Z,42.70
2023-01-26T01:51:54.130Z,45.60
2023-01-26T01:54:28.021Z,41.63
2023-01-26T01:56:59.505Z,42.08
2023-01-26T01:59:27.862Z,42.28
2023-01-26T02:01:57.686Z,46.90
2023-01-26T02:04:27.322Z,41.63
2023-01-26T02:06:59.553Z,43.23
2023-01-26T02:09:50.298Z,38.33
2023-01-26T02:12:21.784Z,40.50
2023-01-26T02:14:51.386Z,42.05
2023-01-26T02:17:19.670Z,44.65
2023-01-26T02:19:57.722Z,45.80
2023-01-26T02:22:42.238Z,46.63
2023-01-26T02:25:19.917Z,42.45
2023-01-26T02:27:49.746Z,42.97
2023-01-26T02:30:19.264Z,36.90
2023-01-26T02:32:47.847Z,50.08
2023-01-26T02:35:15.900Z,41.03
2023-01-26T02:37:43.936Z,40.65
2023-01-26T02:40:21.250Z,37.20
2023-01-26T02:42:49.676Z,45.30
2023-01-26T02:45:18.708Z,49.80
2023-01-26T02:47:46.741Z,41.40
2023-01-26T02:50:14.608Z,43.00
2023-01-26T02:52:42.842Z,46.75
2023-01-26T02:55:22.440Z,43.30
2023-01-26T02:57:54.945Z,41.65
2023-01-26T03:00:25.283Z,51.80
2023-01-26T03:02:56.386Z,47.40
2023-01-26T03:05:24.512Z,53.95
2023-01-26T03:07:52.594Z,44.55
2023-01-26T03:10:22.180Z,46.83
2023-01-26T03:12:52.141Z,45.03
2023-01-26T03:15:38.139Z,43.22
2023-01-26T03:18:30.802Z,43.40
2023-01-26T03:21:18.193Z,43.38
2023-01-26T03:24:03.885Z,45.28
2023-01-26T03:26:49.225Z,47.63
2023-01-26T03:29:18.904Z,45.17
2023-01-26T03:31:47.240Z,40.83
2023-01-26T03:34:15.344Z,48.25
2023-01-26T03:36:43.430Z,49.38
2023-01-26T03:39:31.684Z,48.65
2023-01-26T03:42:17.060Z,50.22
2023-01-26T03:45:04.671Z,45.67
2023-01-26T03:47:50.485Z,55.67
2023-01-26T03:50:36.548Z,49.60
2023-01-26T03:53:21.867Z,45.47
2023-01-26T03:56:07.515Z,54.72
2023-01-26T03:58:35.612Z,49.22
2023-01-26T04:01:06.950Z,36.63
2023-01-26T04:03:52.488Z,46.50
2023-01-26T04:06:37.959Z,45.13
2023-01-26T04:09:06.247Z,47.38
2023-01-26T04:11:34.260Z,46.58
2023-01-26T04:14:19.804Z,47.13
2023-01-26T04:17:06.509Z,46.83
2023-01-26T04:19:52.009Z,46.28
2023-01-26T04:22:20.043Z,43.03
2023-01-26T04:24:48.149Z,44.63
2023-01-26T04:27:16.208Z,41.95
2023-01-26T04:29:44.253Z,46.28
2023-01-26T04:32:13.628Z,48.33
2023-01-26T04:34:41.801Z,42.55
2023-01-26T04:37:10.444Z,41.58
2023-01-26T04:39:38.525Z,39.50
2023-01-26T04:42:06.642Z,41.67
2023-01-26T04:44:34.703Z,43.00
2023-01-26T04:47:02.796Z,46.08
2023-01-26T04:49:32.235Z,43.50
2023-01-26T04:52:00.303Z,45.28
2023-01-26T04:54:28.445Z,48.22
2023-01-26T04:56:56.485Z,43.10
2023-01-26T04:59:24.525Z,38.75
2023-01-26T05:01:52.541Z,44.88
2023-01-26T05:04:20.665Z,36.50
2023-01-26T05:06:50.104Z,39.00
2023-01-26T05:09:18.406Z,42.45
2023-01-26T05:11:46.465Z,43.72
2023-01-26T05:14:15.328Z,34.85
2023-01-26T05:16:43.477Z,45.55
2023-01-26T05:19:11.747Z,35.70
2023-01-26T05:21:39.783Z,34.72
2023-01-26T05:24:09.942Z,38.67
2023-01-26T05:26:37.998Z,34.95
2023-01-26T05:29:07.018Z,40.50
2023-01-26T05:31:35.119Z,41.45
2023-01-26T05:34:03.193Z,35.25
2023-01-26T05:36:31.213Z,40.85
2023-01-26T05:38:59.338Z,36.95
2023-01-26T05:41:28.754Z,45.00
2023-01-26T05:43:56.851Z,37.72
2023-01-26T05:46:24.967Z,40.13
2023-01-26T05:48:54.049Z,51.17
2023-01-26T05:51:22.081Z,42.63
2023-01-26T05:53:50.174Z,42.17
2023-01-26T05:56:18.209Z,44.97
2023-01-26T05:58:47.624Z,42.17
2023-01-26T06:01:15.661Z,43.05
2023-01-26T06:03:43.715Z,40.00
2023-01-26T06:06:11.733Z,42.63
2023-01-26T06:08:39.829Z,44.70
2023-01-26T06:11:07.840Z,46.08
2023-01-26T06:13:35.931Z,63.95
2023-01-26T06:16:05.675Z,40.95
2023-01-26T06:18:33.855Z,44.72
2023-01-26T06:21:01.969Z,48.50
2023-01-26T06:23:30.724Z,41.47
2023-01-26T06:26:00.249Z,42.65
2023-01-26T06:28:28.459Z,37.38
2023-01-26T06:31:00.976Z,46.03
2023-01-26T06:33:30.677Z,42.55
2023-01-26T06:36:02.720Z,54.65
2023-01-26T06:38:31.183Z,46.95
2023-01-26T06:41:01.148Z,59.83
2023-01-26T06:43:29.190Z,69.53
2023-01-26T06:45:57.851Z,46.72
2023-01-26T06:48:26.987Z,57.92
2023-01-26T06:50:58.464Z,41.80
2023-01-26T06:53:30.987Z,41.30
2023-01-26T06:55:59.000Z,46.55
2023-01-26T06:58:27.130Z,52.63
2023-01-26T07:00:56.925Z,46.47
2023-01-26T07:03:25.454Z,43.53
2023-01-26T07:05:53.742Z,46.90
2023-01-26T07:08:23.291Z,37.08
2023-01-26T07:10:51.909Z,41.70
2023-01-26T07:13:20.005Z,44.10
2023-01-26T07:15:48.037Z,70.28
2023-01-26T07:18:16.292Z,43.35
2023-01-26T07:20:44.389Z,43.80
2023-01-26T07:23:12.493Z,48.53
2023-01-26T07:25:44.819Z,43.13
2023-01-26T07:28:12.933Z,34.00
2023-01-26T07:30:40.990Z,43.05
2023-01-26T07:33:09.096Z,42.10
2023-01-26T07:35:37.238Z,38.15
2023-01-26T07:38:05.729Z,31.48
2023-01-26T07:40:34.301Z,37.45
2023-01-26T07:43:03.732Z,35.17
2023-01-26T07:45:32.145Z,40.97
2023-01-26T07:48:00.156Z,33.15
2023-01-26T07:50:28.304Z,35.50
2023-01-26T07:52:56.354Z,38.35
2023-01-26T07:55:26.309Z,32.38
2023-01-26T07:57:54.383Z,47.08
2023-01-26T08:00:24.382Z,51.92
2023-01-26T08:02:52.630Z,64.90
2023-01-26T08:05:20.803Z,47.92
2023-01-26T08:07:49.189Z,56.53
2023-01-26T08:10:18.244Z,45.20
2023-01-26T08:12:46.278Z,57.33
2023-01-26T08:15:14.477Z,50.90
2023-01-26T08:17:43.923Z,50.90
2023-01-26T08:20:14.295Z,72.95
2023-01-26T08:22:42.404Z,82.10
2023-01-26T08:25:11.308Z,112.22
2023-01-26T08:27:39.333Z,39.03
2023-01-26T08:30:09.171Z,40.83
2023-01-26T08:32:37.821Z,39.03
2023-01-26T08:35:08.494Z,30.13
2023-01-26T08:37:36.546Z,33.87
2023-01-26T08:40:04.870Z,31.90
2023-01-26T08:42:33.524Z,56.30
2023-01-26T08:45:01.624Z,33.90
2023-01-26T08:47:29.719Z,29.87
2023-01-26T08:49:57.779Z,31.60
2023-01-26T08:52:27.191Z,35.87
2023-01-26T08:54:55.259Z,34.70
2023-01-26T08:57:23.298Z,46.57
2023-01-26T08:59:51.400Z,23.53
2023-01-26T09:02:19.528Z,29.33
2023-01-26T09:04:48.366Z,133.50
2023-01-26T09:07:16.642Z,83.70
2023-01-26T09:09:46.061Z,47.77
2023-01-26T09:12:14.072Z,27.73
2023-01-26T09:14:42.577Z,31.17
2023-01-26T09:17:10.608Z,24.83
2023-01-26T09:19:38.976Z,25.77
2023-01-26T09:22:07.012Z,30.40
2023-01-26T09:24:35.114Z,22.23
2023-01-26T09:27:04.681Z,23.53
2023-01-26T09:29:32.776Z,29.20
2023-01-26T09:32:00.861Z,25.57
2023-01-26T09:34:29.124Z,30.97
2023-01-26T09:36:57.161Z,25.27
2023-01-26T09:39:25.285Z,19.57
2023-01-26T09:42:02.601Z,24.43
2023-01-26T09:44:41.782Z,28.03
2023-01-26T09:47:20.711Z,21.03
2023-01-26T09:49:52.580Z,19.93
2023-01-26T09:52:27.453Z,21.63
2023-01-26T09:54:58.641Z,20.30
2023-01-26T09:57:31.945Z,21.20
2023-01-26T10:00:07.427Z,23.03
2023-01-26T10:02:46.554Z,22.07
2023-01-26T10:05:19.641Z,28.30
2023-01-26T10:07:47.882Z,22.47
2023-01-26T10:10:22.942Z,21.30
2023-01-26T10:12:52.452Z,21.23
2023-01-26T10:15:31.183Z,24.23
2023-01-26T10:18:05.865Z,24.83
2023-01-26T10:20:36.440Z,27.50
2023-01-26T10:23:08.736Z,18.87
2023-01-26T10:25:38.518Z,23.90
2023-01-26T10:28:15.143Z,19.50
2023-01-26T10:30:46.459Z,20.73
2023-01-26T10:33:18.582Z,20.93
2023-01-26T10:35:47.814Z,20.90
2023-01-26T10:38:41.827Z,29.47
2023-01-26T10:41:29.394Z,22.20
2023-01-26T10:43:59.337Z,29.70
2023-01-26T10:46:38.020Z,29.80
2023-01-26T10:49:18.415Z,35.60
2023-01-26T10:52:05.520Z,23.27
2023-01-26T10:54:35.433Z,20.63
2023-01-26T10:57:07.212Z,30.70
2023-01-26T10:59:39.935Z,22.70
2023-01-26T11:02:23.638Z,17.03
2023-01-26T11:05:22.807Z,23.27
2023-01-26T11:07:54.265Z,21.10
2023-01-26T11:10:27.097Z,23.03
2023-01-26T11:13:16.597Z,18.70
2023-01-26T11:15:47.698Z,23.47
2023-01-26T11:18:31.099Z,22.20
2023-01-26T11:21:01.917Z,23.43
2023-01-26T11:23:42.496Z,21.77
2023-01-26T11:26:36.256Z,38.40
2023-01-26T11:29:24.744Z,24.10
2023-01-26T11:32:00.645Z,19.93
2023-01-26T11:34:43.084Z,22.30
2023-01-26T11:37:36.357Z,19.83
2023-01-26T11:40:25.739Z,22.00
2023-01-26T11:43:08.574Z,31.80
2023-01-26T11:45:53.272Z,21.80
2023-01-26T11:48:29.802Z,48.70
2023-01-26T11:51:08.061Z,25.77
2023-01-26T11:53:53.982Z,38.07
2023-01-26T11:56:35.224Z,25.77
2023-01-26T11:59:08.472Z,20.53
2023-01-26T12:01:42.491Z,24.47
2023-01-26T12:04:17.635Z,23.50
2023-01-26T12:06:52.443Z,18.23
2023-01-26T12:09:24.485Z,17.03
2023-01-26T12:11:59.816Z,19.07
2023-01-26T12:14:32.699Z,21.40
2023-01-26T12:17:21.718Z,17.30
2023-01-26T12:19:55.840Z,17.13
2023-01-26T12:22:32.126Z,19.90
2023-01-26T12:25:19.111Z,17.70
2023-01-26T12:27:54.249Z,16.00
2023-01-26T12:30:26.285Z,19.40
2023-01-26T12:32:54.534Z,19.33
2023-01-26T12:35:33.506Z,17.67
2023-01-26T12:38:17.671Z,21.83
2023-01-26T12:40:58.915Z,15.83
2023-01-26T12:43:42.424Z,19.03
2023-01-26T12:46:11.304Z,21.90
2023-01-26T12:48:46.249Z,20.60
2023-01-26T12:51:21.289Z,20.83
2023-01-26T12:53:58.567Z,22.30
2023-01-26T12:56:32.293Z,18.03
2023-01-26T12:59:02.148Z,16.50
2023-01-26T13:01:40.392Z,17.53
2023-01-26T13:04:11.265Z,17.03
2023-01-26T13:06:39.350Z,19.73
2023-01-26T13:09:22.701Z,19.47
2023-01-26T13:11:53.451Z,22.67
2023-01-26T13:14:41.153Z,21.10
2023-01-26T13:17:51.966Z,23.67
2023-01-26T13:20:45.577Z,18.90
2023-01-26T13:23:42.120Z,24.50
2023-01-26T13:26:26.590Z,19.77
2023-01-26T13:29:32.697Z,25.17
2023-01-26T13:32:02.984Z,17.40
2023-01-26T13:34:36.941Z,17.90
2023-01-26T13:37:11.006Z,10.67
2023-01-26T13:39:45.345Z,18.63
2023-01-26T13:42:21.412Z,10.97
2023-01-26T13:44:57.149Z,22.70
2023-01-26T13:47:29.509Z,14.73
2023-01-26T13:49:57.703Z,14.93
2023-01-26T13:52:27.532Z,10.23
2023-01-26T13:54:57.948Z,10.23
2023-01-26T13:57:29.884Z,13.70
2023-01-26T14:00:00.423Z,12.83
2023-01-26T14:02:31.753Z,10.27
2023-01-26T14:05:00.695Z,13.13
2023-01-26T14:07:32.463Z,32.03
2023-01-26T14:10:02.426Z,15.70
2023-01-26T14:12:35.395Z,13.03
2023-01-26T14:15:07.302Z,15.00
2023-01-26T14:17:37.688Z,14.37
2023-01-26T14:20:25.410Z,11.17
2023-01-26T14:23:14.567Z,30.47
2023-01-26T14:25:46.632Z,19.10
2023-01-26T14:28:18.108Z,14.33
2023-01-26T14:30:53.107Z,21.47
2023-01-26T14:33:23.216Z,9.10
2023-01-26T14:35:58.029Z,21.30
2023-01-26T14:38:28.764Z,16.70
2023-01-26T14:40:59.253Z,20.90
2023-01-26T14:43:29.080Z,17.10
2023-01-26T14:46:01.723Z,13.13
2023-01-26T14:48:36.019Z,20.77
2023-01-26T14:51:06.980Z,13.67
2023-01-26T14:53:35.201Z,13.93
2023-01-26T14:56:03.256Z,9.40
2023-01-26T14:58:34.680Z,16.23
2023-01-26T15:01:04.756Z,12.53
2023-01-26T15:03:36.809Z,18.50
2023-01-26T15:06:08.230Z,22.03
2023-01-26T15:08:37.408Z,13.17
2023-01-26T15:11:23.169Z,12.73
2023-01-26T15:13:55.651Z,10.20
2023-01-26T15:16:25.625Z,15.60
2023-01-26T15:19:01.707Z,16.20
2023-01-26T15:21:34.741Z,19.47
2023-01-26T15:24:04.684Z,12.60
2023-01-26T15:26:35.313Z,18.43
2023-01-26T15:29:07.688Z,16.07
2023-01-26T15:31:37.985Z,19.97
2023-01-26T15:34:06.711Z,10.83
2023-01-26T15:36:36.713Z,9.40
2023-01-26T15:39:13.782Z,14.50
2023-01-26T15:41:42.182Z,9.03
2023-01-26T15:44:17.431Z,11.47
2023-01-26T15:46:45.862Z,11.87
2023-01-26T15:49:14.497Z,13.43
2023-01-26T15:51:42.765Z,10.87
2023-01-26T15:54:12.662Z,10.40
2023-01-26T15:56:40.699Z,16.13
2023-01-26T15:59:08.864Z,19.30
2023-01-26T16:01:38.294Z,14.83
2023-01-26T16:04:06.461Z,14.00
2023-01-26T16:06:35.902Z,19.90
2023-01-26T16:09:04.051Z,13.37
2023-01-26T16:11:35.752Z,15.20
2023-01-26T16:14:04.506Z,14.83
2023-01-26T16:16:33.577Z,17.43
2023-01-26T16:19:03.047Z,12.30
2023-01-26T16:21:35.027Z,20.43
2023-01-26T16:24:03.683Z,11.43
2023-01-26T16:26:32.688Z,12.13
2023-01-26T16:29:01.164Z,13.50
2023-01-26T16:31:31.650Z,14.57
2023-01-26T16:34:01.046Z,14.33
2023-01-26T16:36:30.690Z,20.73
2023-01-26T16:38:58.742Z,19.27
2023-01-26T16:41:28.776Z,21.53
2023-01-26T16:43:58.342Z,15.50
2023-01-26T16:46:26.645Z,18.93
2023-01-26T16:48:54.824Z,18.50
2023-01-26T16:51:26.955Z,12.30
2023-01-26T16:53:56.952Z,11.13
2023-01-26T16:56:26.066Z,11.80
2023-01-26T16:58:54.133Z,13.53
2023-01-26T17:01:25.158Z,14.50
2023-01-26T17:03:53.321Z,16.87
2023-01-26T17:06:21.762Z,15.30
2023-01-26T17:08:50.650Z,19.73
2023-01-26T17:11:22.446Z,13.23
2023-01-26T17:13:51.315Z,11.90
2023-01-26T17:16:21.075Z,11.30
2023-01-26T17:18:50.101Z,22.13
2023-01-26T17:21:19.879Z,18.07
2023-01-26T17:23:50.126Z,18.60
2023-01-26T17:26:20.125Z,18.20
2023-01-26T17:28:49.933Z,23.17
2023-01-26T17:31:20.007Z,19.30
2023-01-26T17:33:50.276Z,18.10
2023-01-26T17:36:19.655Z,13.13
2023-01-26T17:38:48.725Z,15.10
2023-01-26T17:41:17.615Z,21.13
2023-01-26T17:43:47.973Z,16.40
2023-01-26T17:46:17.586Z,17.50
2023-01-26T17:48:46.747Z,20.37
2023-01-26T17:51:17.525Z,23.70
2023-01-26T17:53:47.087Z,20.80
2023-01-26T17:56:17.581Z,24.50
2023-01-26T17:58:50.781Z,19.80
2023-01-26T18:01:19.618Z,22.40
2023-01-26T18:03:47.687Z,27.73
2023-01-26T18:06:15.980Z,17.27
2023-01-26T18:08:44.136Z,20.50
2023-01-26T18:11:14.335Z,17.97
2023-01-26T18:13:43.000Z,20.13
2023-01-26T18:16:16.688Z,18.27
2023-01-26T18:18:45.333Z,19.50
2023-01-26T18:21:15.344Z,18.73
2023-01-26T18:23:45.988Z,19.80
2023-01-26T18:26:14.875Z,21.90
2023-01-26T18:28:43.334Z,17.43
2023-01-26T18:31:15.761Z,21.83
2023-01-26T18:33:44.132Z,22.97
2023-01-26T18:36:14.455Z,19.30
2023-01-26T18:38:44.184Z,18.77
2023-01-26T18:41:12.727Z,19.80
2023-01-26T18:43:40.967Z,20.23
2023-01-26T18:46:11.287Z,25.17
2023-01-26T18:48:41.189Z,24.58
2023-01-26T18:51:09.762Z,24.08
2023-01-26T18:53:39.594Z,30.92
2023-01-26T18:56:10.419Z,30.60
2023-01-26T18:58:39.303Z,29.40
2023-01-26T19:01:11.352Z,27.90
2023-01-26T19:03:42.577Z,23.50
2023-01-26T19:06:10.859Z,23.25
2023-01-26T19:08:39.821Z,23.85
2023-01-26T19:11:09.174Z,23.88
2023-01-26T19:13:41.942Z,26.80
2023-01-26T19:16:10.272Z,28.52
2023-01-26T19:18:38.342Z,20.15
2023-01-26T19:21:07.986Z,26.42
2023-01-26T19:23:37.540Z,24.23
2023-01-26T19:26:11.590Z,27.40
2023-01-26T19:28:41.297Z,26.98
2023-01-26T19:31:10.053Z,22.25
2023-01-26T19:33:38.658Z,26.13
2023-01-26T19:36:09.210Z,40.50
2023-01-26T19:38:39.722Z,28.17
2023-01-26T19:41:07.874Z,26.70
2023-01-26T19:43:36.150Z,32.20
2023-01-26T19:46:05.628Z,30.05
2023-01-26T19:48:33.741Z,28.30
2023-01-26T19:51:03.338Z,27.98
2023-01-26T19:53:33.410Z,27.73
2023-01-26T19:56:05.774Z,19.15
2023-01-26T19:58:33.933Z,24.88
2023-01-26T20:01:03.186Z,24.75
2023-01-26T20:03:31.288Z,26.17
2023-01-26T20:05:59.450Z,22.47
2023-01-26T20:08:28.212Z,23.08
2023-01-26T20:11:03.640Z,25.40
2023-01-26T20:13:31.970Z,22.55
2023-01-26T20:16:00.023Z,22.63
2023-01-26T20:18:28.198Z,22.23
2023-01-26T20:20:58.279Z,18.08
2023-01-26T20:23:28.758Z,20.40
2023-01-26T20:26:04.072Z,25.20
2023-01-26T20:28:32.130Z,26.67
2023-01-26T20:31:06.464Z,24.60
2023-01-26T20:33:35.145Z,29.85
2023-01-26T20:36:07.684Z,17.65
2023-01-26T20:38:36.013Z,20.77
2023-01-26T20:41:09.002Z,24.27
2023-01-26T20:43:39.472Z,21.70
2023-01-26T20:46:11.154Z,28.33
2023-01-26T20:48:39.436Z,20.50
2023-01-26T20:51:12.061Z,22.20
2023-01-26T20:53:40.238Z,26.05
2023-01-26T20:56:11.773Z,18.73
2023-01-26T20:58:42.533Z,23.23
2023-01-26T21:01:12.287Z,26.45
2023-01-26T21:03:40.648Z,22.13
2023-01-26T21:06:10.478Z,24.50
2023-01-26T21:08:38.889Z,27.30
2023-01-26T21:11:09.932Z,24.10
2023-01-26T21:13:41.179Z,22.73
2023-01-26T21:16:10.339Z,22.92
2023-01-26T21:18:38.388Z,27.00
2023-01-26T21:21:08.193Z,22.08
2023-01-26T21:23:36.815Z,23.73
2023-01-26T21:26:06.931Z,27.80
2023-01-26T21:28:36.411Z,23.75
2023-01-26T21:31:06.419Z,30.20
2023-01-26T21:33:37.389Z,34.03
2023-01-26T21:36:07.053Z,32.58
2023-01-26T21:38:38.749Z,24.65
2023-01-26T21:41:29.506Z,26.40
2023-01-26T21:43:59.994Z,31.85
2023-01-26T21:46:28.844Z,24.52
2023-01-26T21:48:57.126Z,29.17
2023-01-26T21:51:58.243Z,26.90
2023-01-26T21:54:26.805Z,27.23
2023-01-26T21:56:54.882Z,25.85
2023-01-26T21:59:23.602Z,24.73
2023-01-26T22:01:53.472Z,23.42
2023-01-26T22:04:23.524Z,30.52
2023-01-26T22:06:52.277Z,30.50
2023-01-26T22:09:21.380Z,25.92
2023-01-26T22:11:50.494Z,22.67
2023-01-26T22:14:21.085Z,23.67
2023-01-26T22:16:50.586Z,27.20
2023-01-26T22:19:19.137Z,27.15
2023-01-26T22:21:47.303Z,25.17
2023-01-26T22:24:17.939Z,37.05
2023-01-26T22:26:46.043Z,23.08
2023-01-26T22:29:14.672Z,25.10
2023-01-26T22:31:42.806Z,34.78
2023-01-26T22:34:12.480Z,29.83
2023-01-26T22:36:41.344Z,28.05
2023-01-26T22:39:10.087Z,27.50
2023-01-26T22:41:38.142Z,31.17
2023-01-26T22:44:06.279Z,27.25
2023-01-26T22:46:35.123Z,26.90
2023-01-26T22:49:04.666Z,33.47
2023-01-26T22:51:37.062Z,31.00
2023-01-26T22:54:06.090Z,30.50
2023-01-26T22:56:34.568Z,28.05
2023-01-26T22:59:03.037Z,27.65
2023-01-26T23:01:33.102Z,24.52
2023-01-26T23:04:02.341Z,23.35
2023-01-26T23:06:30.526Z,31.92
2023-01-26T23:09:01.156Z,26.25
2023-01-26T23:11:30.146Z,25.10
2023-01-26T23:14:00.060Z,21.88
2023-01-26T23:16:29.049Z,22.20
2023-01-26T23:18:59.340Z,20.95
2023-01-26T23:21:30.733Z,21.45
2023-01-26T23:24:00.243Z,27.23
2023-01-26T23:26:28.477Z,27.50
2023-01-26T23:28:56.593Z,26.30
2023-01-26T23:31:24.858Z,19.42
2023-01-26T23:33:52.880Z,18.83
2023-01-26T23:36:21.755Z,19.10
2023-01-26T23:38:49.873Z,27.90
2023-01-26T23:41:19.512Z,33.30
2023-01-26T23:43:47.613Z,22.88
2023-01-26T23:46:15.742Z,27.98
2023-01-26T23:48:43.783Z,27.42
2023-01-26T23:51:13.357Z,23.67
2023-01-26T23:53:41.630Z,28.30
2023-01-26T23:56:14.822Z,28.40
2023-01-26T23:58:45.728Z,26.75
